Tiempo atmosférico en la estación meteorológica de Bera, Navarra (78 m.)



Fecha
DESCASC
Temp. máxima en grados centígrados (hora)
DESCASC
Temp. mínima en grados centígrados (hora)
DESCASC
Temp. media en grados centígrados
DESCASC
Racha de viento máxima en m/sg (hora)
DESCASC
Velocidad máxima media en intervalos de 10 minutos(hora)
DESCASC
Precipitaciones diarias en mm
DESCASC
Precipitaciones de 00:00 a 06:00 en mm
DESCASC
Precipitaciones de 06:00 a 12:00 en mm
DESCASC
Precipitaciones de 12:00 a 18:00 en mm
DESCASC
Precipitaciones de 18:00 a 24:00 en mm
DESCASC
05-04-2020 23.2 (17:30) 13.7 (04:10) 18.5 12.78 (17:20) 5.56 (13:00) 0 0 0 0 0
04-04-2020 23.9 (17:20) -0.2 (07:50) 11.8 10.28 (14:50) 5 (14:50) 0 0 0 0 0
03-04-2020 14.7 (15:10) 2.1 (03:50) 8.4 6.94 (15:50) 3.06 (14:50) 0 0 0 0 0
02-04-2020 16.3 (17:50) 3.7 (00:00) 10 6.39 (18:00) 3.06 (15:20) 0 0 0 0 0
01-04-2020 16.9 (13:20) 5.7 (00:00) 11.3 7.78 (12:00) 3.89 (12:20) 4.2 0.2 0 0.4 3.6
31-03-2020 9.8 (17:10) 1.1 (00:00) 5.5 3.33 (18:00) 1.94 (18:00) 4.2 0 3.4 0.2 0.6
30-03-2020 8.7 (16:00) 0.9 (00:00) 4.8 5.83 (17:00) 2.78 (13:30) 2.8 1 0.2 0.8 0.8
29-03-2020 14.4 (14:10) 0.9 (00:00) 7.6 9.17 (22:00) 3.61 (22:00) 0.2 0 0 0 0.2
28-03-2020 16.9 (13:20) 0.5 (00:00) 8.7 6.94 (14:00) 3.33 (12:20) 0 0 0 0 0
27-03-2020 15.3 (15:30) -1 (-00:0) 7.2 8.61 (16:10) 3.61 (16:20) 0 0 0 0 0
26-03-2020 13.3 (15:10) 2.1 (00:00) 7.7 9.17 (10:50) 3.89 (10:40) 0 0 0 0 0
25-03-2020 18 (13:50) 4.6 (00:00) 11.3 8.06 (14:50) 3.89 (14:50) 0 0 0 0 0
24-03-2020 19.7 (16:00) 6.7 (00:00) 13.2 7.5 (17:40) 3.89 (17:40) 0 0 0 0 0
23-03-2020 17.2 (15:10) 6.6 (00:00) 11.9 6.67 (16:10) 3.33 (15:30) 0.6 0.6 0 0 0
22-03-2020 16.4 (11:30) 6.5 (01:30) 11.4 6.94 (12:30) 3.33 (12:30) 0 0 0 0 0
21-03-2020 20.5 (14:40) 7.6 (00:00) 14 9.72 (10:10) 3.89 (13:40) 0 0 0 0 0
20-03-2020 20.9 (16:10) 10.7 (00:00) 15.8 9.44 (04:50) 4.17 (15:20) 0 0 0 0 0
19-03-2020 22.6 (14:20) 9.5 (00:00) 16.1 8.06 (13:20) 3.89 (14:30) 0 0 0 0 0
18-03-2020 22.3 (14:50) 7.5 (00:00) 14.9 4.44 (15:40) 2.5 (15:40) 0 0 0 0 0
17-03-2020 14.3 (16:10) 8.2 (00:00) 11.3 3.06 (16:40) 1.39 (16:50) 0.4 0 0.4 0 0
16-03-2020 11.5 (16:30) 8.9 (00:00) 10.2 5.83 (02:10) 2.22 (02:00) 27.8 17.8 6.2 2 1.8
15-03-2020 21.9 (13:30) 1.3 (00:00) 11.6 10.56 (11:20) 5 (14:20) 27.4 0 0 1 26.4
14-03-2020 14.5 (16:50) 3.3 (00:00) 8.9 5.83 (13:20) 2.5 (13:20) 0 0 0 0 0
13-03-2020 12.8 (14:50) 6.5 (23:59) 9.7 5.56 (10:40) 2.5 (10:40) 0 0 0 0 0
12-03-2020 14.4 (14:40) 8.7 (00:00) 11.5 4.72 (16:50) 2.5 (21:40) 0.8 0 0.2 0 0.6
11-03-2020 21.2 (15:40) 5.1 (00:00) 13.2 6.11 (15:50) 2.5 (14:00) 0 0 0 0 0
10-03-2020 16.3 (13:40) 5.6 (00:00) 10.9 6.11 (16:10) 2.78 (15:50) 0 0 0 0 0
09-03-2020 12.5 (15:40) 8.1 (00:00) 10.3 10.56 (06:00) 4.17 (12:20) 17.6 10.2 6.8 0.6 0

Gráficas

Temp. máximas Temp. mínimas Temp. medias Precipitaciones Rachas de viento máximas Velocidades máximas media en intervalos de 10 minutos

Datos horarios

Fecha y hora oficial Temperatura (ºC) Velocidad del viento (km/h) Dirección del viento Racha (km/h) Dirección de racha Precipitación (mm) Presión (hPa) Tendencia (hPa) Humedad (%)
2020-04-07 23:00:00 13 3 Oeste 14 Sudoeste 0 -- -- 86
2020-04-07 22:00:00 14.7 0 Calma 8 Sudeste 0 -- -- 78
2020-04-07 21:00:00 17.1 3 Sudeste 21 Sur 0 -- -- 69
2020-04-07 20:00:00 18.5 8 Sudeste 24 Oeste 0 -- -- 63
2020-04-07 19:00:00 19.5 13 Sudoeste 30 Sudoeste 0 -- -- 61
2020-04-07 18:00:00 19.9 10 Sur 28 Sur 0 -- -- 59
2020-04-07 17:00:00 20 7 Sudoeste 27 Sur 0 -- -- 63
2020-04-07 16:00:00 18.9 5 Sudeste 22 Sudoeste 0 -- -- 64
2020-04-07 15:00:00 17.8 6 Sur 19 Sur 0 -- -- 68
2020-04-07 14:00:00 16.9 5 Sur 27 Sur 0 -- -- 74
2020-04-07 13:00:00 16.8 10 Sur 27 Sur 0 -- -- 72
2020-04-07 12:00:00 17.1 8 Sur 22 Sur 0 -- -- 68
2020-04-07 11:00:00 16.2 6 Sur 16 Sur 0 -- -- 75
2020-04-07 10:00:00 12.8 0 Calma 5 Oeste 0 -- -- 98
2020-04-07 09:00:00 11.8 2 Este 5 Este 0 -- -- 98
2020-04-07 08:00:00 11.5 0 Calma 4 Sudeste 0 -- -- 98
2020-04-07 07:00:00 11.1 0 Calma 4 Sudoeste 0 -- -- 97
2020-04-07 06:00:00 11.4 0 Calma 4 Oeste 0 -- -- 97
2020-04-07 05:00:00 11.5 0 Calma 4 Sur 0 -- -- 96
2020-04-07 04:00:00 11.8 0 Calma 3 Sur 0 -- -- 96
2020-04-07 03:00:00 12.2 0 Calma 3 Este 0.2 -- -- 96
2020-04-07 02:00:00 12.4 0 Calma 4 Este 0 -- -- 96
2020-04-07 01:00:00 12.4 0 Calma 3 Sudoeste 0 -- -- 96
2020-04-07 00:00:00 12.7 0 Calma 2 Sur 2 -- -- 95
2020-04-06 23:00:00 12.8 3 Sudoeste 4 Sudoeste 0.6 -- -- 95
2020-04-06 22:00:00 12.9 0 Calma 3 Sur 1.6 -- -- 95
2020-04-06 21:00:00 13.2 0 Calma 2 Sur 1.2 -- -- 93
2020-04-06 20:00:00 13.5 0 Calma 5 Sudoeste 3.2 -- -- 92
2020-04-06 19:00:00 14.2 0 Calma 7 Noroeste 0.2 -- -- 87
2020-04-06 18:00:00 14.4 3 Norte 10 Norte 0 -- -- 83
2020-04-06 17:00:00 14.6 6 Norte 20 Noroeste 0 -- -- 82
2020-04-06 16:00:00 15.7 10 Noroeste 24 Noroeste 0 -- -- 77
2020-04-06 15:00:00 18 12 Noroeste 23 Noroeste 0 -- -- 70
2020-04-06 14:00:00 19 5 Este 13 Este 0 -- -- 61
2020-04-06 13:00:00 17.7 4 Nordeste 11 Nordeste 0 -- -- 69
2020-04-06 12:00:00 14.8 0 Calma 8 Sudoeste 0 -- -- 90
2020-04-06 11:00:00 13.5 0 Calma 4 Sudoeste 0 -- -- 93
2020-04-06 10:00:00 12.7 0 Calma 3 Noroeste 0.2 -- -- 94
2020-04-06 09:00:00 12.2 2 Sudeste 5 Sur 0.6 -- -- 94
2020-04-06 08:00:00 12.2 0 Calma 6 Norte 1 -- -- 93
2020-04-06 07:00:00 12.5 0 Calma 10 Nordeste 1.2 -- -- 93
2020-04-06 06:00:00 12.7 2 Norte 9 Este 0.4 -- -- 91
2020-04-06 05:00:00 13 3 Este 5 Este 1 -- -- 89
2020-04-06 04:00:00 14.4 4 Este 17 Sudeste 0.8 -- -- 79
2020-04-06 03:00:00 16.5 2 Sudeste 26 Sudoeste 0.2 -- -- 67
2020-04-06 02:00:00 18.2 4 Sur 21 Sudeste 0 -- -- 47
2020-04-06 01:00:00 18.3 4 Sudoeste 30 Sudoeste 0 -- -- 48
2020-04-06 00:00:00 18.9 10 Sudoeste 29 Sur 0 -- -- 45
2020-04-05 23:00:00 18.7 7 Sur 22 Sur 0 -- -- 45
2020-04-05 22:00:00 18.5 8 Sudoeste 23 Sur 0 -- -- 48
2020-04-05 21:00:00 19.3 5 Sudeste 20 Sudoeste 0 -- -- 46
2020-04-05 20:00:00 20.8 8 Sur 28 Sur 0 -- -- 44
2020-04-05 19:00:00 21.5 8 Oeste 23 Sudoeste 0 -- -- 43
2020-04-05 18:00:00 22.4 13 Sur 46 Sudoeste 0 -- -- 40
2020-04-05 17:00:00 22.7 15 Sur 38 Sur 0 -- -- 39
2020-04-05 16:00:00 21.6 13 Sudeste 40 Sur 0 -- -- 40
2020-04-05 15:00:00 21.2 15 Sur 39 Sur 0 -- -- 40
2020-04-05 14:00:00 19.7 15 Sur 36 Sur 0 -- -- 40
2020-04-05 13:00:00 18.9 20 Sur 42 Sudeste 0 -- -- 40
2020-04-05 12:00:00 18.4 14 Sudeste 31 Sudeste 0 -- -- 40
2020-04-05 11:00:00 18.2 10 Sudoeste 34 Oeste 0 -- -- 39
2020-04-05 10:00:00 16.8 11 Sur 37 Este 0 -- -- 39
2020-04-05 09:00:00 15.2 8 Sudeste 27 Este 0 -- -- 40
2020-04-05 08:00:00 14 2 Sur 29 Sur 0 -- -- 46
2020-04-05 07:00:00 14.8 9 Sur 21 Sur 0 -- -- 40
2020-04-05 06:00:00 15.2 9 Sudoeste 36 Sur 0 -- -- 41
2020-04-05 05:00:00 15.6 7 Sudeste 32 Sudeste 0 -- -- 41
2020-04-05 04:00:00 13.9 5 Sudeste 20 Sur 0 -- -- 56
2020-04-05 03:00:00 16.1 9 Sur 33 Sur 0 -- -- 48
2020-04-05 02:00:00 16.8 8 Sudeste 27 Sudeste 0 -- -- 49
2020-04-05 01:00:00 17.4 14 Sur 29 Sudeste 0 -- -- 46
2020-04-05 00:00:00 17.5 9 Sudoeste 26 Sudoeste 0 -- -- 43
2020-04-04 23:00:00 16.3 3 Sur 13 Nordeste 0 -- -- 45
2020-04-04 22:00:00 16.3 7 Sudeste 17 Sur 0 -- -- 48
2020-04-04 21:00:00 18.8 10 Sudoeste 25 Sudoeste 0 -- -- 34
2020-04-04 20:00:00 21.2 5 Este 29 Sudoeste 0 -- -- 27
2020-04-04 19:00:00 22.3 8 Sudoeste 32 Sudoeste 0 -- -- 36
2020-04-04 18:00:00 23.3 13 Sudoeste 30 Sur 0 -- -- 32
2020-04-04 17:00:00 23.8 10 Sudoeste 25 Sudoeste 0 -- -- 34
2020-04-04 16:00:00 22.9 13 Sudoeste 30 Sudoeste 0 -- -- 38
2020-04-04 15:00:00 22.2 14 Sudoeste 37 Sudoeste 0 -- -- 38
2020-04-04 14:00:00 21.2 12 Sudoeste 33 Sudoeste 0 -- -- 41
2020-04-04 13:00:00 20.1 12 Sudoeste 32 Sudoeste 0 -- -- 45
2020-04-04 12:00:00 18.7 12 Sur 29 Sur 0 -- -- 49
2020-04-04 11:00:00 16.8 10 Sur 26 Sudoeste 0 -- -- 51
2020-04-04 10:00:00 8.1 4 Noroeste 19 Sudeste 0 -- -- 95
2020-04-04 09:00:00 0.9 0 Calma 3 Sur 0 -- -- 98
2020-04-04 08:00:00 -0.2 0 Calma 4 Sudoeste 0 -- -- 97
2020-04-04 07:00:00 -0.1 0 Calma 4 Este 0 -- -- 96
2020-04-04 06:00:00 0.1 0 Calma 3 Sudeste 0 -- -- 96
2020-04-04 05:00:00 0.3 0 Calma 2 Sudeste 0 -- -- 95
2020-04-04 04:00:00 0.7 0 Calma 3 Sudeste 0 -- -- 95
2020-04-04 03:00:00 1.3 0 Calma 3 Sudeste 0 -- -- 95
2020-04-04 02:00:00 1.9 0 Calma 3 Sudeste 0 -- -- 94
2020-04-04 01:00:00 2.5 0 Calma 5 Sudeste 0 -- -- 92
2020-04-04 00:00:00 3.5 0 Calma 4 Sudeste 0 -- -- 91
2020-04-03 23:00:00 4.4 0 Calma 4 Sudeste 0 -- -- 88
2020-04-03 22:00:00 6 2 Sudeste 7 Sudeste 0 -- -- 84
2020-04-03 21:00:00 8.3 3 Sudeste 10 Noroeste 0 -- -- 76
2020-04-03 20:00:00 11.8 6 Noroeste 17 Noroeste 0 -- -- 59
2020-04-03 19:00:00 13.1 10 Noroeste 18 Noroeste 0 -- -- 53
2020-04-03 18:00:00 13.9 9 Norte 19 Norte 0 -- -- 52
2020-04-03 17:00:00 14.2 9 Norte 23 Noroeste 0 -- -- 50
2020-04-03 16:00:00 14.5 10 Norte 25 Noroeste 0 -- -- 51
2020-04-03 15:00:00 14.6 9 Noroeste 23 Noroeste 0 -- -- 51
2020-04-03 14:00:00 14.4 9 Noroeste 18 Noroeste 0 -- -- 51
2020-04-03 13:00:00 13.1 7 Norte 19 Noroeste 0 -- -- 52
2020-04-03 12:00:00 12.8 8 Noroeste 18 Noroeste 0 -- -- 54
2020-04-03 11:00:00 11.4 0 Calma 5 Oeste 0 -- -- 68
2020-04-03 10:00:00 7.5 0 Calma 2 Sudeste 0 -- -- 87
2020-04-03 09:00:00 4.9 0 Calma 2 Sur 0 -- -- 97
2020-04-03 08:00:00 4.2 0 Calma 2 Sur 0 -- -- 97
2020-04-03 07:00:00 4 0 Calma 3 Sudoeste 0 -- -- 98
2020-04-03 06:00:00 3.6 0 Calma 2 Sudeste 0 -- -- 98
2020-04-03 05:00:00 2.6 0 Calma 3 Sudeste 0 -- -- 97
2020-04-03 04:00:00 2.1 0 Calma 2 Este 0 -- -- 96
2020-04-03 03:00:00 2.4 0 Calma 3 Sudeste 0 -- -- 95
2020-04-03 02:00:00 3.2 2 Sudeste 4 Sudeste 0 -- -- 96
2020-04-03 01:00:00 3.5 2 Sudeste 5 Este 0 -- -- 95
2020-04-03 00:00:00 3.7 0 Calma 3 Sur 0 -- -- 93
2020-04-02 23:00:00 4.7 0 Calma 3 Sudeste 0 -- -- 91
2020-04-02 22:00:00 6.1 0 Calma 5 Sudeste 0 -- -- 87
2020-04-02 21:00:00 8.7 2 Sudeste 11 Oeste 0 -- -- 78
2020-04-02 20:00:00 11.8 6 Norte 20 Oeste 0 -- -- 64
2020-04-02 19:00:00 13.6 6 Noroeste 19 Noroeste 0 -- -- 71
2020-04-02 18:00:00 16.2 10 Oeste 23 Oeste 0 -- -- 64
2020-04-02 17:00:00 15 9 Noroeste 23 Noroeste 0 -- -- 64
2020-04-02 16:00:00 14.6 9 Norte 21 Norte 0 -- -- 66
2020-04-02 15:00:00 15.4 8 Norte 20 Nordeste 0 -- -- 63
2020-04-02 14:00:00 15.4 7 Norte 15 Norte 0 -- -- 67
2020-04-02 13:00:00 13.6 4 Oeste 8 Oeste 0 -- -- 81
2020-04-02 12:00:00 11.9 0 Calma 3 Oeste 0 -- -- 93
2020-04-02 11:00:00 10.5 0 Calma 4 Noroeste 0 -- -- 97
2020-04-02 10:00:00 10 0 Calma 2 Noroeste 0 -- -- 98
2020-04-02 09:00:00 9.6 0 Calma 2 Oeste 0 -- -- 98
2020-04-02 08:00:00 9.6 0 Calma 3 Sudoeste 0 -- -- 97
2020-04-02 07:00:00 9.7 0 Calma 2 Noroeste 0 -- -- 97
2020-04-02 06:00:00 9.8 0 Calma 2 Sur 0 -- -- 97
2020-04-02 05:00:00 9.9 0 Calma 2 Sur 0 -- -- 97
2020-04-02 04:00:00 10.2 2 Este 5 Sudeste 0 -- -- 97
2020-04-02 03:00:00 10.2 0 Calma 5 Sudeste 0 -- -- 96
2020-04-02 02:00:00 10.4 0 Calma 4 Este 0 -- -- 96
2020-04-02 01:00:00 10.7 0 Calma 0 Calma 0 -- -- 95
2020-04-02 00:00:00 11 0 Calma 3 Sur 0.2 -- -- 95
2020-04-01 23:00:00 11.1 0 Calma 2 Noroeste 0 -- -- 94
2020-04-01 22:00:00 11.5 0 Calma 3 Sudeste 2.4 -- -- 93
2020-04-01 21:00:00 12.1 0 Calma 5 Este 1 -- -- 91
2020-04-01 20:00:00 13.1 0 Calma 5 Sudeste 0 -- -- 85
2020-04-01 19:00:00 14 2 Sudeste 4 Sudeste 0 -- -- 82
2020-04-01 18:00:00 14.4 0 Calma 13 Sudoeste 0 -- -- 76
2020-04-01 17:00:00 14.1 5 Sur 13 Sudeste 0 -- -- 74
2020-04-01 16:00:00 14.2 3 Este 9 Sudeste 0.4 -- -- 76
2020-04-01 15:00:00 14.8 6 Sur 22 Sur 0 -- -- 65
2020-04-01 14:00:00 15.9 7 Sudeste 21 Sur 0 -- -- 65
2020-04-01 13:00:00 16.6 11 Sur 27 Sudoeste 0 -- -- 62
2020-04-01 12:00:00 15.7 12 Sur 28 Sudoeste 0 -- -- 67
2020-04-01 11:00:00 12.9 0 Calma 4 Noroeste 0 -- -- 79
2020-04-01 10:00:00 7.9 0 Calma 2 Nordeste 0 -- -- 98
2020-04-01 09:00:00 6.7 0 Calma 2 Noroeste 0 -- -- 98
2020-04-01 08:00:00 5.7 0 Calma 4 Este 0 -- -- 97
2020-04-01 07:00:00 6.1 0 Calma 4 Sudeste 0 -- -- 97
2020-04-01 06:00:00 6.3 0 Calma 3 Este 0 -- -- 97
2020-04-01 05:00:00 6.3 0 Calma 2 Sur 0 -- -- 97
2020-04-01 04:00:00 6.3 0 Calma 2 Sudeste 0 -- -- 97
2020-04-01 03:00:00 6.4 0 Calma 3 Sudeste 0 -- -- 97
2020-04-01 02:00:00 6.6 0 Calma 3 Sur 0.2 -- -- 97
2020-04-01 01:00:00 6.5 0 Calma 3 Sudeste 0 -- -- 97
2020-04-01 00:00:00 6.2 0 Calma 2 Nordeste 0 -- -- 96
2020-03-31 23:00:00 6.6 0 Calma 4 Este 0 -- -- 94
2020-03-31 22:00:00 7.5 0 Calma 4 Sur 0 -- -- 94
2020-03-31 21:00:00 8.1 0 Calma 3 Este 0.2 -- -- 92
2020-03-31 20:00:00 8.6 0 Calma 8 Sur 0.2 -- -- 90
2020-03-31 19:00:00 8.9 3 Sudoeste 8 Sudoeste 0.2 -- -- 88
2020-03-31 18:00:00 9.2 7 Sudoeste 12 Sudoeste 0 -- -- 83
2020-03-31 17:00:00 9.7 2 Oeste 8 Sudoeste 0 -- -- 82
2020-03-31 16:00:00 8.6 3 Sudoeste 6 Sudoeste 0.2 -- -- 81
2020-03-31 15:00:00 8.4 3 Oeste 6 Sudoeste 0 -- -- 81
2020-03-31 14:00:00 7.3 2 Noroeste 5 Noroeste 0 -- -- 86
2020-03-31 13:00:00 5.7 0 Calma 5 Nordeste 0 -- -- 90
2020-03-31 12:00:00 4.5 0 Calma 2 Norte 0.4 -- -- 93
2020-03-31 11:00:00 3.4 0 Calma 2 Sudoeste 0.4 -- -- 94
2020-03-31 10:00:00 2.8 0 Calma 0 Calma 0.2 -- -- 96
2020-03-31 09:00:00 2.3 0 Calma 3 Sudeste 0.8 -- -- 96
2020-03-31 08:00:00 2.3 0 Calma 2 Noroeste 1 -- -- 97
2020-03-31 07:00:00 2.2 0 Calma 2 Oeste 0.6 -- -- 97
2020-03-31 06:00:00 1.9 0 Calma 3 Sudeste 0 -- -- 97
2020-03-31 05:00:00 1.7 0 Calma 2 Este 0 -- -- 98
2020-03-31 04:00:00 1.5 0 Calma 3 Sudeste 0 -- -- 98
2020-03-31 03:00:00 1.4 0 Calma 3 Este 0 -- -- 97
2020-03-31 02:00:00 1.4 0 Calma 5 Sudeste 0 -- -- 97
2020-03-31 01:00:00 1.8 0 Calma 4 Este 0 -- -- 97
2020-03-31 00:00:00 1.1 0 Calma 4 Sudeste 0 -- -- 96
2020-03-30 23:00:00 1.3 0 Calma 4 Norte 0 -- -- 94
2020-03-30 22:00:00 2.7 0 Calma 5 Sudeste 0 -- -- 92
2020-03-30 21:00:00 4.3 0 Calma 5 Noroeste 0 -- -- 90
2020-03-30 20:00:00 5.4 0 Calma 13 Norte 0.8 -- -- 86
2020-03-30 19:00:00 6.9 3 Oeste 9 Sudoeste 0 -- -- 78
2020-03-30 18:00:00 5.9 3 Sudoeste 21 Norte 0.8 -- -- 81
2020-03-30 17:00:00 8.1 7 Noroeste 21 Noroeste 0 -- -- 62
2020-03-30 16:00:00 8.7 9 Oeste 21 Noroeste 0 -- -- 62
2020-03-30 15:00:00 7.6 3 Sudoeste 13 Oeste 0 -- -- 67
2020-03-30 14:00:00 6.6 4 Noroeste 19 Oeste 0 -- -- 69
2020-03-30 13:00:00 6.9 5 Oeste 13 Noroeste 0 -- -- 70
2020-03-30 12:00:00 6.1 2 Oeste 12 Oeste 0 -- -- 76
2020-03-30 11:00:00 4.9 6 Oeste 12 Oeste 0 -- -- 82
2020-03-30 10:00:00 3.8 6 Sudoeste 13 Sudoeste 0 -- -- 85
2020-03-30 09:00:00 3 5 Sudoeste 12 Sudoeste 0.2 -- -- 89
2020-03-30 08:00:00 3.2 0 Calma 6 Sudoeste 0 -- -- 93
2020-03-30 07:00:00 3.3 3 Sudoeste 6 Sudoeste 0 -- -- 95
2020-03-30 06:00:00 3.1 0 Calma 3 Sur 0 -- -- 94
2020-03-30 05:00:00 3.3 0 Calma 4 Sur 0 -- -- 93
2020-03-30 04:00:00 3.9 0 Calma 6 Sudoeste 0 -- -- 91
2020-03-30 03:00:00 4 4 Sudoeste 12 Sudoeste 0.2 -- -- 90
2020-03-30 02:00:00 4.1 6 Noroeste 19 Noroeste 0.4 -- -- 89
2020-03-30 01:00:00 4.4 4 Oeste 14 Noroeste 0.4 -- -- 89
2020-03-30 00:00:00 5.4 4 Noroeste 18 Noroeste 0.2 -- -- 84
2020-03-29 23:00:00 6.9 5 Noroeste 26 Noroeste 0 -- -- 80
2020-03-29 22:00:00 9 13 Noroeste 33 Noroeste 0 -- -- 69
2020-03-29 21:00:00 9.9 4 Oeste 20 Noroeste 0 -- -- 77
2020-03-29 20:00:00 10.5 6 Noroeste 21 Oeste 0 -- -- 76
2020-03-29 19:00:00 10.8 6 Oeste 14 Oeste 0 -- -- 80
2020-03-29 18:00:00 11.1 0 Calma 15 Noroeste 0 -- -- 78
2020-03-29 17:00:00 11.1 5 Norte 18 Noroeste 0 -- -- 80
2020-03-29 16:00:00 11.3 6 Noroeste 20 Norte 0 -- -- 81
2020-03-29 15:00:00 12.3 7 Noroeste 21 Noroeste 0 -- -- 74
2020-03-29 14:00:00 14.2 6 Noroeste 22 Sudoeste 0 -- -- 67
2020-03-29 13:00:00 13.4 11 Noroeste 23 Noroeste 0 -- -- 69
2020-03-29 12:00:00 11.9 2 Este 5 Este 0 -- -- 73
2020-03-29 11:00:00 8.7 0 Calma 3 Norte 0 -- -- 80
2020-03-29 10:00:00 4.7 0 Calma 2 Sur 0 -- -- 97
2020-03-29 09:00:00 2.3 0 Calma 2 Sudeste 0 -- -- 97
2020-03-29 08:00:00 1.4 0 Calma 2 Sur 0 -- -- 96
2020-03-29 07:00:00 1 0 Calma 2 Sudeste 0 -- -- 96
2020-03-29 06:00:00 1.3 0 Calma 2 Sudeste 0 -- -- 95
2020-03-29 05:00:00 1.9 0 Calma 3 Sudeste 0 -- -- 96
2020-03-29 03:00:00 2.2 0 Calma 2 Sudeste 0 -- -- 93
2020-03-29 01:00:00 2.8 0 Calma 2 Sudeste 0 -- -- 93
2020-03-29 00:00:00 3.4 0 Calma 3 Sudeste 0 -- -- 91
2020-03-28 23:00:00 4.2 0 Calma 3 Sudeste 0 -- -- 89
2020-03-28 22:00:00 5.3 0 Calma 3 Este 0 -- -- 87
2020-03-28 21:00:00 6.9 0 Calma 5 Sur 0 -- -- 81
2020-03-28 20:00:00 10.2 3 Sur 10 Noroeste 0 -- -- 68
2020-03-28 19:00:00 13 8 Noroeste 19 Noroeste 0 -- -- 53
2020-03-28 18:00:00 14.3 5 Norte 19 Noroeste 0 -- -- 48
2020-03-28 17:00:00 15.6 8 Norte 19 Noroeste 0 -- -- 47
2020-03-28 16:00:00 16.4 8 Norte 21 Noroeste 0 -- -- 46
2020-03-28 15:00:00 16.5 9 Norte 23 Norte 0 -- -- 48
2020-03-28 14:00:00 16.5 11 Norte 25 Noroeste 0 -- -- 52
2020-03-28 13:00:00 16.7 8 Norte 21 Noroeste 0 -- -- 51
2020-03-28 12:00:00 16.3 4 Sur 8 Sudoeste 0 -- -- 53
2020-03-28 11:00:00 13.3 0 Calma 4 Sudeste 0 -- -- 60
2020-03-28 10:00:00 9.3 0 Calma 3 Este 0 -- -- 74
2020-03-28 09:00:00 4.8 0 Calma 2 Oeste 0 -- -- 96
2020-03-28 08:00:00 0.9 0 Calma 2 Este 0 -- -- 97
2020-03-28 07:00:00 0.5 0 Calma 2 Este 0 -- -- 96
2020-03-28 06:00:00 0.6 0 Calma 0 Calma 0 -- -- 96
2020-03-28 05:00:00 0.8 0 Calma 2 Sudeste 0 -- -- 96
2020-03-28 04:00:00 1.1 0 Calma 2 Este 0 -- -- 95
2020-03-28 03:00:00 1.6 0 Calma 3 Sudeste 0 -- -- 95
2020-03-28 02:00:00 2.1 0 Calma 3 Sudeste 0 -- -- 94
2020-03-28 01:00:00 2.7 0 Calma 2 Sudeste 0 -- -- 93
2020-03-28 00:00:00 3.2 0 Calma 3 Sudeste 0 -- -- 92
2020-03-27 23:00:00 4.2 0 Calma 4 Sudeste 0 -- -- 91
2020-03-27 22:00:00 5 0 Calma 4 Sudeste 0 -- -- 89
2020-03-27 21:00:00 6.1 0 Calma 4 Este 0 -- -- 86
2020-03-27 20:00:00 8.2 0 Calma 11 Noroeste 0 -- -- 78
2020-03-27 19:00:00 11.4 8 Noroeste 23 Noroeste 0 -- -- 65
2020-03-27 18:00:00 12.2 6 Norte 29 Noroeste 0 -- -- 63
2020-03-27 17:00:00 13 12 Norte 31 Noroeste 0 -- -- 58
2020-03-27 16:00:00 14.9 9 Norte 23 Noroeste 0 -- -- 51
2020-03-27 15:00:00 14.8 4 Nordeste 20 Nordeste 0 -- -- 48
2020-03-27 14:00:00 14.8 10 Noroeste 21 Noroeste 0 -- -- 50
2020-03-27 13:00:00 14.4 8 Norte 19 Oeste 0 -- -- 50
2020-03-27 12:00:00 13.8 5 Noroeste 12 Noroeste 0 -- -- 49
2020-03-27 11:00:00 11.4 0 Calma 4 Este 0 -- -- 58
2020-03-27 10:00:00 7.5 2 Sudeste 5 Sur 0 -- -- 72
2020-03-27 09:00:00 3.1 0 Calma 2 Sur 0 -- -- 91
2020-03-27 08:00:00 -0.4 0 Calma 3 Sur 0 -- -- 96
2020-03-27 07:00:00 -1 0 Calma 3 Sur 0 -- -- 95
2020-03-27 06:00:00 -0.8 0 Calma 2 Sudeste 0 -- -- 95
2020-03-27 05:00:00 -0.5 0 Calma 2 Sudeste 0 -- -- 94
2020-03-27 04:00:00 -0.1 0 Calma 5 Sur 0 -- -- 93
2020-03-27 03:00:00 0.3 0 Calma 2 Sudeste 0 -- -- 93
2020-03-27 02:00:00 0.8 0 Calma 3 Sudeste 0 -- -- 92
2020-03-27 01:00:00 1.4 2 Sudeste 3 Sudeste 0 -- -- 90
2020-03-27 00:00:00 2.1 0 Calma 5 Sudeste 0 -- -- 88
2020-03-26 23:00:00 3.3 3 Sudeste 4 Sudeste 0 -- -- 86
2020-03-26 22:00:00 4.3 0 Calma 2 Sudeste 0 -- -- 86
2020-03-26 21:00:00 4.1 0 Calma 5 Sudeste 0 -- -- 81
2020-03-26 20:00:00 5.9 4 Sudeste 8 Noroeste 0 -- -- 73
2020-03-26 19:00:00 9.5 3 Noroeste 10 Noroeste 0 -- -- 54
2020-03-26 18:00:00 10.6 6 Norte 18 Noroeste 0 -- -- 49
2020-03-26 17:00:00 11 8 Norte 27 Noroeste 0 -- -- 46
2020-03-26 16:00:00 12.7 12 Oeste 32 Noroeste 0 -- -- 41
2020-03-26 15:00:00 13 9 Noroeste 31 Oeste 0 -- -- 41
2020-03-26 14:00:00 12.9 9 Norte 22 Noroeste 0 -- -- 39
2020-03-26 13:00:00 12.3 10 Norte 29 Norte 0 -- -- 36
2020-03-26 12:00:00 12 10 Norte 25 Noroeste 0 -- -- 41
2020-03-26 11:00:00 11.5 10 Noroeste 33 Noroeste 0 -- -- 44
2020-03-26 10:00:00 11.6 9 Noroeste 22 Noroeste 0 -- -- 53
2020-03-26 09:00:00 10.3 5 Norte 22 Norte 0 -- -- 59
2020-03-26 08:00:00 10.3 5 Noroeste 15 Noroeste 0 -- -- 59
2020-03-26 07:00:00 10.5 4 Noroeste 19 Noroeste 0 -- -- 57
2020-03-26 06:00:00 10.9 7 Norte 19 Norte 0 -- -- 60
2020-03-26 05:00:00 10 2 Oeste 10 Sudoeste 0 -- -- 73
2020-03-26 04:00:00 8.5 0 Calma 4 Sudeste 0 -- -- 87
2020-03-26 03:00:00 8.2 2 Sudeste 4 Sur 0 -- -- 87
2020-03-26 02:00:00 7.9 0 Calma 4 Norte 0 -- -- 86
2020-03-26 01:00:00 8.7 0 Calma 5 Nordeste 0 -- -- 81
2020-03-26 00:00:00 8.7 0 Calma 3 Nordeste 0 -- -- 81
2020-03-25 23:00:00 7.9 0 Calma 4 Norte 0 -- -- 85
2020-03-25 22:00:00 6.8 0 Calma 4 Sudeste 0 -- -- 86
2020-03-25 21:00:00 7.7 4 Sudeste 8 Sur 0 -- -- 80
2020-03-25 20:00:00 9.7 4 Oeste 19 Noroeste 0 -- -- 70
2020-03-25 19:00:00 11 10 Noroeste 21 Noroeste 0 -- -- 67
2020-03-25 18:00:00 13.1 8 Noroeste 28 Noroeste 0 -- -- 59
2020-03-25 17:00:00 14.5 13 Noroeste 28 Noroeste 0 -- -- 54
2020-03-25 16:00:00 15.8 12 Noroeste 26 Noroeste 0 -- -- 56
2020-03-25 15:00:00 17.3 11 Oeste 29 Noroeste 0 -- -- 58
2020-03-25 14:00:00 17.8 12 Oeste 25 Oeste 0 -- -- 55
2020-03-25 13:00:00 17.4 12 Noroeste 24 Noroeste 0 -- -- 55
2020-03-25 12:00:00 17.2 10 Noroeste 21 Oeste 0 -- -- 63
2020-03-25 11:00:00 15.5 8 Oeste 17 Sudoeste 0 -- -- 69
2020-03-25 10:00:00 9.9 0 Calma 4 Noroeste 0 -- -- 94
2020-03-25 09:00:00 5.8 0 Calma 3 Nordeste 0 -- -- 99
2020-03-25 08:00:00 5 0 Calma 3 Sur 0 -- -- 98
2020-03-25 07:00:00 5.2 2 Sur 4 Sur 0 -- -- 98
2020-03-25 06:00:00 6 0 Calma 3 Sudeste 0 -- -- 98
2020-03-25 05:00:00 6.3 0 Calma 3 Sur 0 -- -- 98
2020-03-25 04:00:00 5.4 0 Calma 2 Sudeste 0 -- -- 97
2020-03-25 03:00:00 4.6 0 Calma 2 Sudeste 0 -- -- 95
2020-03-25 02:00:00 5.3 0 Calma 2 Este 0 -- -- 95
2020-03-25 01:00:00 6 0 Calma 4 Sudeste 0 -- -- 94
2020-03-25 00:00:00 6.7 0 Calma 4 Este 0 -- -- 94
2020-03-24 23:00:00 7.4 2 Sudeste 4 Sudeste 0 -- -- 93
2020-03-24 22:00:00 8.5 0 Calma 4 Este 0 -- -- 90
2020-03-24 21:00:00 9.9 0 Calma 5 Este 0 -- -- 87
2020-03-24 20:00:00 12.4 2 Sudeste 10 Noroeste 0 -- -- 80
2020-03-24 19:00:00 15.4 3 Noroeste 21 Noroeste 0 -- -- 71
2020-03-24 18:00:00 16.5 12 Noroeste 27 Noroeste 0 -- -- 66
2020-03-24 17:00:00 18.9 11 Norte 23 Noroeste 0 -- -- 55
2020-03-24 16:00:00 19.7 9 Noroeste 21 Noroeste 0 -- -- 51
2020-03-24 15:00:00 18.9 13 Noroeste 26 Noroeste 0 -- -- 57
2020-03-24 14:00:00 19.3 10 Norte 20 Noroeste 0 -- -- 55
2020-03-24 13:00:00 19.2 6 Norte 18 Norte 0 -- -- 57
2020-03-24 12:00:00 19.4 5 Norte 13 Norte 0 -- -- 61
2020-03-24 11:00:00 16.5 0 Calma 5 Sudoeste 0 -- -- 73
2020-03-24 10:00:00 12.2 0 Calma 5 Nordeste 0 -- -- 93
2020-03-24 09:00:00 9.8 0 Calma 3 Nordeste 0 -- -- 98
2020-03-24 08:00:00 9.2 2 Nordeste 4 Nordeste 0 -- -- 98
2020-03-24 07:00:00 8.9 0 Calma 3 Este 0 -- -- 98
2020-03-24 06:00:00 9 0 Calma 4 Nordeste 0 -- -- 98
2020-03-24 05:00:00 8.8 0 Calma 2 Sudoeste 0 -- -- 98
2020-03-24 04:00:00 8.4 0 Calma 2 Norte 0 -- -- 97
2020-03-24 03:00:00 7.7 0 Calma 4 Sudeste 0 -- -- 97
2020-03-24 02:00:00 6.9 0 Calma 4 Nordeste 0 -- -- 95
2020-03-24 01:00:00 7.7 0 Calma 3 Sudeste 0 -- -- 94
2020-03-24 00:00:00 8.8 0 Calma 4 Este 0 -- -- 93
2020-03-23 23:00:00 10.1 0 Calma 4 Sudeste 0 -- -- 93
2020-03-23 22:00:00 10.8 0 Calma 3 Sur 0 -- -- 92
2020-03-23 21:00:00 11.3 0 Calma 5 Sudeste 0 -- -- 90
2020-03-23 20:00:00 12.5 2 Sur 10 Noroeste 0 -- -- 86
2020-03-23 19:00:00 13.5 4 Noroeste 21 Noroeste 0 -- -- 83
2020-03-23 18:00:00 13.9 9 Noroeste 18 Noroeste 0 -- -- 80
2020-03-23 17:00:00 14.9 10 Norte 24 Noroeste 0 -- -- 75
2020-03-23 16:00:00 15.5 9 Norte 22 Noroeste 0 -- -- 72
2020-03-23 15:00:00 17 6 Noroeste 19 Norte 0 -- -- 66
2020-03-23 14:00:00 16.2 6 Noroeste 13 Noroeste 0 -- -- 74
2020-03-23 13:00:00 15.7 5 Noroeste 12 Noroeste 0 -- -- 75
2020-03-23 12:00:00 14 4 Noroeste 8 Noroeste 0 -- -- 82
2020-03-23 11:00:00 13.5 0 Calma 4 Oeste 0 -- -- 83
2020-03-23 10:00:00 11.6 0 Calma 3 Oeste 0 -- -- 90
2020-03-23 09:00:00 10.2 0 Calma 2 Sudeste 0 -- -- 95
2020-03-23 08:00:00 9.5 0 Calma 2 Sur 0 -- -- 96
2020-03-23 07:00:00 9.1 0 Calma 2 Sur 0 -- -- 96
2020-03-23 06:00:00 9 3 Sur 4 Sur 0.6 -- -- 96
2020-03-23 05:00:00 8.9 0 Calma 3 Este 0 -- -- 95
2020-03-23 04:00:00 8.6 0 Calma 2 Sur 0 -- -- 96
2020-03-23 03:00:00 8.2 0 Calma 2 Sur 0 -- -- 97
2020-03-23 02:00:00 7.3 0 Calma 3 Sur 0 -- -- 97
2020-03-23 01:00:00 6.8 0 Calma 3 Sudeste 0 -- -- 97
2020-03-23 00:00:00 6.6 0 Calma 4 Este 0 -- -- 95
2020-03-22 23:00:00 6.9 0 Calma 4 Sudeste 0 -- -- 93
2020-03-22 22:00:00 7.7 0 Calma 4 Sur 0 -- -- 91
2020-03-22 21:00:00 8.9 2 Sudeste 5 Sudeste 0 -- -- 90
2020-03-22 20:00:00 10.5 3 Sudeste 7 Sudeste 0 -- -- 84
2020-03-22 19:00:00 13.2 3 Oeste 8 Norte 0 -- -- 76
2020-03-22 18:00:00 14.4 4 Norte 12 Norte 0 -- -- 73
2020-03-22 17:00:00 14.8 6 Norte 17 Noroeste 0 -- -- 70
2020-03-22 16:00:00 15.8 8 Norte 17 Noroeste 0 -- -- 68
2020-03-22 15:00:00 15.7 7 Noroeste 15 Noroeste 0 -- -- 68
2020-03-22 14:00:00 14.8 7 Norte 19 Noroeste 0 -- -- 72
2020-03-22 13:00:00 15.1 10 Norte 25 Nordeste 0 -- -- 71
2020-03-22 12:00:00 15.8 8 Norte 18 Norte 0 -- -- 69
2020-03-22 11:00:00 15.1 6 Norte 17 Noroeste 0 -- -- 71
2020-03-22 10:00:00 13.9 0 Calma 4 Sur 0 -- -- 79
2020-03-22 09:00:00 9.5 0 Calma 3 Sudeste 0 -- -- 93
2020-03-22 08:00:00 7.4 0 Calma 3 Sur 0 -- -- 95
2020-03-22 07:00:00 7.5 0 Calma 3 Sudeste 0 -- -- 92
2020-03-22 06:00:00 8.3 0 Calma 6 Sur 0 -- -- 94
2020-03-22 05:00:00 7.7 0 Calma 3 Sur 0 -- -- 94
2020-03-22 04:00:00 7.7 0 Calma 4 Sudeste 0 -- -- 93
2020-03-22 03:00:00 7.7 0 Calma 4 Sudeste 0 -- -- 94
2020-03-22 02:00:00 6.8 0 Calma 3 Este 0 -- -- 95
2020-03-22 01:00:00 6.9 0 Calma 4 Este 0 -- -- 93
2020-03-22 00:00:00 7.6 0 Calma 5 Sudeste 0 -- -- 91
2020-03-21 23:00:00 8.4 0 Calma 4 Sur 0 -- -- 89
2020-03-21 22:00:00 9.4 0 Calma 4 Este 0 -- -- 88
2020-03-21 21:00:00 10.6 0 Calma 5 Este 0 -- -- 84
2020-03-21 20:00:00 12.6 2 Sudeste 6 Sudeste 0 -- -- 77
2020-03-21 19:00:00 16 3 Sudoeste 13 Noroeste 0 -- -- 67
2020-03-21 18:00:00 18.5 8 Noroeste 19 Noroeste 0 -- -- 55
2020-03-21 17:00:00 19.8 5 Norte 9 Norte 0 -- -- 44
2020-03-21 16:00:00 19.9 4 Sudoeste 17 Sur 0 -- -- 50
2020-03-21 15:00:00 20.5 10 Sur 26 Sur 0 -- -- 42
2020-03-21 14:00:00 20 9 Sur 25 Sudoeste 0 -- -- 42
2020-03-21 13:00:00 19.3 10 Sudoeste 27 Sur 0 -- -- 45
2020-03-21 12:00:00 17.7 13 Sur 32 Sur 0 -- -- 45
2020-03-21 11:00:00 16.8 10 Sur 35 Sur 0 -- -- 45
2020-03-21 10:00:00 15.4 12 Sur 26 Sudoeste 0 -- -- 51
2020-03-21 09:00:00 14.2 7 Sur 28 Oeste 0 -- -- 52
2020-03-21 08:00:00 13.4 5 Sudoeste 26 Sudeste 0 -- -- 56
2020-03-21 07:00:00 13.1 8 Sur 24 Sudoeste 0 -- -- 57
2020-03-21 06:00:00 13.1 8 Sudeste 21 Sur 0 -- -- 59
2020-03-21 05:00:00 12.8 4 Sudeste 24 Sur 0 -- -- 65
2020-03-21 04:00:00 13.5 4 Sudeste 19 Sur 0 -- -- 62
2020-03-21 03:00:00 13.5 5 Sudeste 16 Sur 0 -- -- 64
2020-03-21 02:00:00 11.2 0 Calma 15 Sur 0 -- -- 74
2020-03-21 01:00:00 12.9 3 Noroeste 14 Sur 0 -- -- 67
2020-03-21 00:00:00 13.7 4 Sur 21 Sur 0 -- -- 64
2020-03-20 23:00:00 15.4 8 Sur 25 Sudeste 0 -- -- 53
2020-03-20 22:00:00 14.5 5 Sudeste 19 Sur 0 -- -- 55
2020-03-20 21:00:00 16.3 6 Sur 26 Sur 0 -- -- 50
2020-03-20 20:00:00 17 10 Sur 22 Sur 0 -- -- 48
2020-03-20 19:00:00 17.5 8 Sur 23 Sudoeste 0 -- -- 50
2020-03-20 18:00:00 18.6 10 Sur 27 Sur 0 -- -- 49
2020-03-20 17:00:00 19.9 11 Sur 27 Sudoeste 0 -- -- 48
2020-03-20 16:00:00 20.8 7 Sur 29 Sudoeste 0 -- -- 43
2020-03-20 15:00:00 20.2 12 Sudoeste 30 Sudoeste 0 -- -- 46
2020-03-20 14:00:00 20 13 Sudoeste 30 Sudoeste 0 -- -- 45
2020-03-20 13:00:00 19.2 10 Sur 27 Sudoeste 0 -- -- 47
2020-03-20 12:00:00 17.9 13 Sudoeste 27 Sudoeste 0 -- -- 48
2020-03-20 11:00:00 16.9 10 Sur 27 Sudoeste 0 -- -- 50
2020-03-20 10:00:00 15.8 9 Sur 28 Sur 0 -- -- 51
2020-03-20 09:00:00 15 9 Sur 27 Sur 0 -- -- 51
2020-03-20 08:00:00 14.3 13 Sur 26 Sur 0 -- -- 52
2020-03-20 07:00:00 14.6 12 Sur 30 Sur 0 -- -- 51
2020-03-20 06:00:00 13.4 7 Sur 29 Sur 0 -- -- 55
2020-03-20 05:00:00 14.5 5 Sur 34 Sudeste 0 -- -- 55
2020-03-20 04:00:00 12.3 5 Sur 13 Sur 0 -- -- 64
2020-03-20 03:00:00 12.5 5 Sur 20 Sur 0 -- -- 63
2020-03-20 02:00:00 13.1 5 Sudeste 24 Sudoeste 0 -- -- 65
2020-03-20 01:00:00 10.7 3 Este 13 Sur 0 -- -- 76
2020-03-20 00:00:00 12.1 2 Nordeste 18 Sudeste 0 -- -- 70
2020-03-19 23:00:00 12.2 0 Calma 15 Sur 0 -- -- 72
2020-03-19 22:00:00 13.5 0 Calma 11 Sudeste 0 -- -- 74
2020-03-19 21:00:00 14 2 Nordeste 7 Sur 0 -- -- 80
2020-03-19 20:00:00 15.3 2 Este 13 Sur 0 -- -- 74
2020-03-19 19:00:00 17.6 6 Sur 17 Sudoeste 0 -- -- 65
2020-03-19 18:00:00 19.9 4 Sudoeste 21 Sudoeste 0 -- -- 54
2020-03-19 17:00:00 20.9 6 Sur 27 Sudoeste 0 -- -- 50
2020-03-19 16:00:00 21.5 12 Sudoeste 25 Sudoeste 0 -- -- 47
2020-03-19 15:00:00 22.4 8 Sur 28 Sur 0 -- -- 45
2020-03-19 14:00:00 22.3 9 Sur 29 Sudoeste 0 -- -- 45
2020-03-19 13:00:00 21.4 11 Sur 26 Sur 0 -- -- 48
2020-03-19 12:00:00 20.7 10 Sudeste 25 Sur 0 -- -- 48
2020-03-19 11:00:00 18.8 4 Sur 27 Sur 0 -- -- 51
2020-03-19 10:00:00 17.8 5 Sudoeste 17 Oeste 0 -- -- 58
2020-03-19 09:00:00 14 3 Oeste 11 Sudeste 0 -- -- 87
2020-03-19 08:00:00 11.3 2 Sudoeste 12 Noroeste 0 -- -- 92
2020-03-19 07:00:00 10.9 0 Calma 8 Noroeste 0 -- -- 92
2020-03-19 06:00:00 11 2 Nordeste 10 Norte 0 -- -- 93
2020-03-19 05:00:00 11 0 Calma 8 Oeste 0 -- -- 94
2020-03-19 04:00:00 10.1 2 Sudoeste 6 Oeste 0 -- -- 97
2020-03-19 03:00:00 9.7 2 Sudoeste 6 Noroeste 0 -- -- 97
2020-03-19 02:00:00 9.6 0 Calma 4 Sudeste 0 -- -- 96
2020-03-19 01:00:00 9.8 0 Calma 4 Sudeste 0 -- -- 96
2020-03-19 00:00:00 10.2 0 Calma 5 Sur 0 -- -- 95
2020-03-18 23:00:00 10.7 0 Calma 2 Este 0 -- -- 94
2020-03-18 22:00:00 11.4 0 Calma 3 Sudeste 0 -- -- 93
2020-03-18 21:00:00 12.3 0 Calma 3 Sudeste 0 -- -- 91
2020-03-18 20:00:00 13.7 0 Calma 5 Sudeste 0 -- -- 86
2020-03-18 19:00:00 16.3 3 Sudeste 6 Sudeste 0 -- -- 81
2020-03-18 18:00:00 19.8 3 Norte 9 Nordeste 0 -- -- 63
2020-03-18 17:00:00 20.8 4 Sudeste 12 Sur 0 -- -- 54
2020-03-18 16:00:00 21.4 6 Sur 16 Sur 0 -- -- 49
2020-03-18 15:00:00 22.2 6 Este 15 Sudeste 0 -- -- 49
2020-03-18 14:00:00 21.6 3 Oeste 8 Oeste 0 -- -- 52
2020-03-18 13:00:00 18.4 3 Norte 5 Noroeste 0 -- -- 67
2020-03-18 12:00:00 15.3 0 Calma 2 Sudoeste 0 -- -- 82
2020-03-18 11:00:00 11.9 0 Calma 2 Oeste 0 -- -- 97
2020-03-18 10:00:00 9.5 0 Calma 0 Calma 0 -- -- 100
2020-03-18 09:00:00 8.1 0 Calma -- -- 0 -- -- 99
2020-03-18 08:00:00 7.6 0 Calma 0 Calma 0 -- -- 99
2020-03-18 07:00:00 7.5 0 Calma 2 Nordeste 0 -- -- 99
2020-03-18 06:00:00 7.8 0 Calma 2 Este 0 -- -- 99
2020-03-18 05:00:00 8.2 0 Calma 2 Nordeste 0 -- -- 98
2020-03-18 04:00:00 8.6 0 Calma 3 Nordeste 0 -- -- 98
2020-03-18 03:00:00 8.8 0 Calma 3 Nordeste 0 -- -- 98
2020-03-18 02:00:00 8.4 0 Calma 2 Norte 0 -- -- 98
2020-03-18 01:00:00 7.9 0 Calma 3 Nordeste 0 -- -- 97
2020-03-18 00:00:00 8.2 0 Calma 3 Sur 0 -- -- 95
2020-03-17 23:00:00 9.3 0 Calma 4 Este 0 -- -- 94
2020-03-17 22:00:00 10.8 0 Calma 4 Sudeste 0 -- -- 91
2020-03-17 21:00:00 12.6 0 Calma 5 Noroeste 0 -- -- 91
2020-03-17 20:00:00 12.9 0 Calma 5 Oeste 0 -- -- 90
2020-03-17 19:00:00 13.5 3 Noroeste 9 Noroeste 0 -- -- 87
2020-03-17 18:00:00 14.2 3 Norte 7 Nordeste 0 -- -- 85
2020-03-17 17:00:00 14.3 3 Nordeste 11 Nordeste 0 -- -- 80
2020-03-17 16:00:00 14.1 0 Calma 3 Sur 0 -- -- 83
2020-03-17 15:00:00 13.5 0 Calma 4 Oeste 0 -- -- 87
2020-03-17 14:00:00 13.2 2 Oeste 6 Noroeste 0 -- -- 89
2020-03-17 13:00:00 13.1 3 Noroeste 5 Noroeste 0 -- -- 88
2020-03-17 12:00:00 12.8 0 Calma 3 Sudeste 0 -- -- 91
2020-03-17 11:00:00 12.1 0 Calma 2 Norte 0 -- -- 94
2020-03-17 10:00:00 11.8 0 Calma 3 Nordeste 0 -- -- 97
2020-03-17 09:00:00 11.1 0 Calma 5 Nordeste 0 -- -- 99
2020-03-17 08:00:00 10.4 0 Calma 3 Sur 0.2 -- -- 99
2020-03-17 07:00:00 10.4 0 Calma 2 Sur 0.2 -- -- 98
2020-03-17 06:00:00 10.3 0 Calma 2 Sur 0 -- -- 98
2020-03-17 05:00:00 10.3 0 Calma 2 Sudeste 0 -- -- 98
2020-03-17 04:00:00 10.2 0 Calma 0 Calma 0 -- -- 98
2020-03-17 03:00:00 10.2 0 Calma 2 Sudeste 0 -- -- 98
2020-03-17 02:00:00 10.3 0 Calma 3 Nordeste 0 -- -- 98
2020-03-17 01:00:00 10.3 0 Calma 3 Este 0 -- -- 98
2020-03-17 00:00:00 10.3 0 Calma 2 Sudeste 0 -- -- 98
2020-03-16 23:00:00 10.3 0 Calma 3 Nordeste 0.2 -- -- 98
2020-03-16 22:00:00 10.3 0 Calma 2 Nordeste 0.2 -- -- 98
2020-03-16 21:00:00 10.3 0 Calma 5 Este 1 -- -- 97
2020-03-16 20:00:00 10.3 2 Nordeste 3 Nordeste 0.2 -- -- 97
2020-03-16 19:00:00 10.3 2 Sudoeste 9 Sur 0.2 -- -- 95
2020-03-16 18:00:00 10.6 0 Calma 7 Este 0.2 -- -- 93
2020-03-16 17:00:00 11.1 4 Noroeste 13 Noroeste 0 -- -- 90
2020-03-16 16:00:00 11.2 3 Norte 11 Noroeste 0 -- -- 88
2020-03-16 15:00:00 10.9 3 Noroeste 8 Norte 0.4 -- -- 92
2020-03-16 14:00:00 10.7 0 Calma 5 Noroeste 1 -- -- 94
2020-03-16 13:00:00 10.7 4 Noroeste 9 Norte 0.4 -- -- 94
2020-03-16 12:00:00 10.7 2 Oeste 4 Sudoeste 0.4 -- -- 95
2020-03-16 11:00:00 10 0 Calma 5 Sudoeste 0.6 -- -- 97
2020-03-16 10:00:00 9.6 0 Calma 3 Oeste 0.6 -- -- 98
2020-03-16 09:00:00 9.3 0 Calma 2 Sudoeste 0.6 -- -- 98
2020-03-16 08:00:00 8.9 0 Calma 2 Este 2.2 -- -- 98
2020-03-16 07:00:00 9 0 Calma 8 Sudeste 1.8 -- -- 97
2020-03-16 06:00:00 9.1 2 Nordeste 14 Noroeste 4.2 -- -- 96
2020-03-16 05:00:00 9.1 5 Oeste 15 Noroeste 4 -- -- 96
2020-03-16 04:00:00 8.9 3 Sudoeste 18 Sur 3 -- -- 96
2020-03-16 03:00:00 9.1 0 Calma 21 Oeste 2.4 -- -- 95
2020-03-16 02:00:00 9.3 8 Oeste 19 Sudoeste 2.8 -- -- 95
2020-03-16 01:00:00 9.5 5 Sudoeste 15 Sudoeste 1.4 -- -- 97
2020-03-16 00:00:00 9.9 0 Calma 4 Nordeste 1.4 -- -- 98
2020-03-15 23:00:00 9.8 0 Calma 3 Sur 5 -- -- 97
2020-03-15 22:00:00 10.1 0 Calma 9 Sudoeste 9.6 -- -- 96
2020-03-15 21:00:00 10.7 3 Oeste 9 Oeste 4.2 -- -- 95
2020-03-15 20:00:00 11.2 5 Oeste 14 Oeste 6.2 -- -- 91
2020-03-15 19:00:00 11.9 3 Este 7 Noroeste 0 -- -- 91
2020-03-15 18:00:00 12.7 3 Noroeste 17 Norte 1 -- -- 85
2020-03-15 17:00:00 13.9 6 Norte 23 Nordeste 0 -- -- 78
2020-03-15 16:00:00 15.1 9 Norte 27 Norte 0 -- -- 74
2020-03-15 15:00:00 16.6 15 Norte 31 Norte 0 -- -- 69
2020-03-15 14:00:00 20.7 10 Noroeste 28 Noroeste 0 -- -- 55
2020-03-15 13:00:00 21.4 11 Sur 23 Sudoeste 0 -- -- 40
2020-03-15 12:00:00 19.9 12 Sur 38 Sur 0 -- -- 39
2020-03-15 11:00:00 18.9 11 Sur 33 Sur 0 -- -- 39
2020-03-15 10:00:00 17.4 6 Sudoeste 32 Sur 0 -- -- 45
2020-03-15 09:00:00 15.4 10 Sudoeste 29 Sur 0 -- -- 48
2020-03-15 08:00:00 11.9 9 Sur 26 Sur 0 -- -- 61
2020-03-15 07:00:00 3.8 2 Nordeste 11 Nordeste 0 -- -- 99
2020-03-15 06:00:00 1.7 2 Nordeste 6 Nordeste 0 -- -- 98
2020-03-15 05:00:00 1.7 0 Calma 4 Sudeste 0 -- -- 97
2020-03-15 04:00:00 1.6 0 Calma 2 Sudeste 0 -- -- 97
2020-03-15 03:00:00 1.7 0 Calma 3 Sur 0 -- -- 96
2020-03-15 02:00:00 2.1 0 Calma 4 Sur 0 -- -- 96
2020-03-15 01:00:00 2.7 0 Calma 2 Sudeste 0 -- -- 95
2020-03-15 00:00:00 3.3 0 Calma 2 Sudeste 0 -- -- 94
2020-03-14 23:00:00 4.1 0 Calma 2 Este 0 -- -- 93
2020-03-14 22:00:00 5.1 0 Calma 4 Sudeste 0 -- -- 91
2020-03-14 21:00:00 6.8 0 Calma 5 Este 0 -- -- 87
2020-03-14 20:00:00 8.3 2 Sudeste 6 Sudeste 0 -- -- 83
2020-03-14 19:00:00 11.8 2 Noroeste 15 Noroeste 0 -- -- 72
2020-03-14 18:00:00 13.5 4 Norte 12 Noroeste 0 -- -- 63
2020-03-14 17:00:00 14.3 3 Nordeste 11 Noroeste 0 -- -- 60
2020-03-14 16:00:00 14.1 0 Calma 15 Este 0 -- -- 62
2020-03-14 15:00:00 14.2 4 Sudeste 17 Noroeste 0 -- -- 60
2020-03-14 14:00:00 14.3 5 Norte 21 Nordeste 0 -- -- 59
2020-03-14 13:00:00 13.1 5 Noroeste 15 Este 0 -- -- 63
2020-03-14 12:00:00 13.2 5 Nordeste 14 Norte 0 -- -- 62
2020-03-14 11:00:00 12.4 3 Sur 7 Sur 0 -- -- 66
2020-03-14 10:00:00 9.8 2 Nordeste 4 Este 0 -- -- 81
2020-03-14 09:00:00 6 0 Calma 2 Este 0 -- -- 98
2020-03-14 08:00:00 3.6 0 Calma 3 Sudeste 0 -- -- 96
2020-03-14 07:00:00 4.1 0 Calma 4 Sudeste 0 -- -- 97
2020-03-14 06:00:00 5 0 Calma 0 Calma 0 -- -- 97
2020-03-14 05:00:00 4.6 0 Calma 2 Sudeste 0 -- -- 96
2020-03-14 04:00:00 4.8 0 Calma 2 Sur 0 -- -- 96
2020-03-14 03:00:00 4.9 0 Calma 3 Este 0 -- -- 96
2020-03-14 02:00:00 4.6 0 Calma 2 Este 0 -- -- 95
2020-03-14 01:00:00 4.9 0 Calma 3 Sudeste 0 -- -- 92
2020-03-14 00:00:00 6.5 2 Sudeste 5 Sur 0 -- -- 92
2020-03-13 23:00:00 7.1 0 Calma 3 Este 0 -- -- 92
2020-03-13 22:00:00 7 0 Calma 4 Sudeste 0 -- -- 89
2020-03-13 21:00:00 9 3 Sudeste 5 Sudeste 0 -- -- 83
2020-03-13 20:00:00 10.7 0 Calma 12 Noroeste 0 -- -- 76
2020-03-13 19:00:00 11.1 3 Norte 14 Noroeste 0 -- -- 71
2020-03-13 18:00:00 11.5 8 Norte 14 Noroeste 0 -- -- 71
2020-03-13 17:00:00 11.9 6 Norte 13 Noroeste 0 -- -- 70
2020-03-13 16:00:00 12.1 6 Norte 18 Noroeste 0 -- -- 69
2020-03-13 15:00:00 12.7 6 Este 16 Nordeste 0 -- -- 66
2020-03-13 14:00:00 12.6 6 Este 19 Este 0 -- -- 65
2020-03-13 13:00:00 12.3 7 Este 17 Este 0 -- -- 69
2020-03-13 12:00:00 12.5 8 Sudeste 18 Sudeste 0 -- -- 70
2020-03-13 11:00:00 12.1 9 Sudeste 20 Este 0 -- -- 72
2020-03-13 10:00:00 11.3 6 Este 17 Este 0 -- -- 76
2020-03-13 09:00:00 10.5 6 Nordeste 15 Nordeste 0 -- -- 76
2020-03-13 08:00:00 9.4 0 Calma 8 Nordeste 0 -- -- 90
2020-03-13 07:00:00 9.5 2 Sudeste 6 Este 0 -- -- 89
2020-03-13 06:00:00 9.5 2 Este 8 Este 0 -- -- 90
2020-03-13 05:00:00 9.7 0 Calma 8 Noroeste 0 -- -- 91
2020-03-13 04:00:00 9.6 0 Calma 5 Norte 0 -- -- 92
2020-03-13 03:00:00 9.7 0 Calma 4 Sudoeste 0 -- -- 92
2020-03-13 02:00:00 10.2 0 Calma 3 Sur 0 -- -- 94
2020-03-13 01:00:00 10.7 0 Calma 5 Sur 0 -- -- 96
2020-03-13 00:00:00 10.8 3 Sudoeste 4 Sudoeste 0.2 -- -- 95
2020-03-12 23:00:00 11.1 0 Calma 9 Sudeste 0.2 -- -- 93
2020-03-12 22:00:00 11.3 6 Norte 16 Nordeste 0 -- -- 90
2020-03-12 21:00:00 12.3 4 Noroeste 10 Oeste 0.2 -- -- 92
2020-03-12 20:00:00 12.6 5 Norte 12 Norte 0 -- -- 89
2020-03-12 19:00:00 12.8 5 Norte 15 Noroeste 0 -- -- 89
2020-03-12 18:00:00 13.3 8 Nordeste 15 Nordeste 0 -- -- 84
2020-03-12 17:00:00 13.8 7 Norte 17 Noroeste 0 -- -- 82
2020-03-12 16:00:00 14.1 6 Norte 15 Noroeste 0 -- -- 83
2020-03-12 15:00:00 14.3 5 Noroeste 10 Norte 0 -- -- 84
2020-03-12 14:00:00 13.8 4 Noroeste 15 Noroeste 0 -- -- 88
2020-03-12 13:00:00 13.8 2 Sur 8 Sudeste 0 -- -- 88
2020-03-12 12:00:00 13.1 0 Calma 2 Norte 0 -- -- 92
2020-03-12 11:00:00 12.5 0 Calma 0 Calma 0 -- -- 95
2020-03-12 10:00:00 12.1 0 Calma -- -- 0 -- -- 97
2020-03-12 09:00:00 11.5 0 Calma 2 Sudeste 0.2 -- -- 97
2020-03-12 08:00:00 11.1 0 Calma 2 Noroeste 0 -- -- 97
2020-03-12 07:00:00 10.9 0 Calma -- -- 0 -- -- 97
2020-03-12 06:00:00 10.6 0 Calma -- -- 0 -- -- 97
2020-03-12 05:00:00 10.2 0 Calma -- -- 0 -- -- 98
2020-03-12 04:00:00 9.7 0 Calma 2 Sudoeste 0 -- -- 98
2020-03-12 03:00:00 8.7 0 Calma -- -- 0 -- -- 97
2020-03-12 02:00:00 8.7 0 Calma 2 Sudeste 0 -- -- 96
2020-03-12 01:00:00 8.8 0 Calma 3 Sur 0 -- -- 95
2020-03-12 00:00:00 9.4 0 Calma 3 Sur 0 -- -- 95
2020-03-11 23:00:00 9.8 0 Calma 3 Sudeste 0 -- -- 94
2020-03-11 22:00:00 10.3 0 Calma 4 Sudeste 0 -- -- 93
2020-03-11 21:00:00 11.1 0 Calma 5 Sudeste 0 -- -- 90
2020-03-11 20:00:00 13 0 Calma 8 Sudoeste 0 -- -- 86
2020-03-11 19:00:00 16.1 3 Sudoeste 15 Noroeste 0 -- -- 77
2020-03-11 18:00:00 20 4 Nordeste 18 Nordeste 0 -- -- 62
2020-03-11 17:00:00 20.7 8 Este 17 Este 0 -- -- 60
2020-03-11 16:00:00 21.1 7 Este 22 Este 0 -- -- 57
2020-03-11 15:00:00 21 5 Este 16 Este 0 -- -- 58
2020-03-11 14:00:00 19.8 9 Sudeste 17 Sudeste 0 -- -- 61
2020-03-11 13:00:00 18.1 3 Oeste 5 Sur 0 -- -- 69
2020-03-11 12:00:00 13.4 0 Calma 5 Sur 0 -- -- 81
2020-03-11 11:00:00 8.6 0 Calma 5 Nordeste 0 -- -- 100
2020-03-11 10:00:00 7 0 Calma 4 Nordeste 0 -- -- 99
2020-03-11 09:00:00 6.5 2 Nordeste 5 Este 0 -- -- 99
2020-03-11 08:00:00 6.3 0 Calma 5 Sudeste 0 -- -- 99
2020-03-11 07:00:00 6.3 2 Este 6 Sudeste 0 -- -- 99
2020-03-11 06:00:00 6.3 0 Calma 5 Este 0 -- -- 99
2020-03-11 05:00:00 6.4 0 Calma 4 Nordeste 0 -- -- 98
2020-03-11 04:00:00 6.6 0 Calma 2 Sur 0 -- -- 98
2020-03-11 03:00:00 6.6 0 Calma 2 Nordeste 0 -- -- 98
2020-03-11 02:00:00 5.7 0 Calma 3 Sur 0 -- -- 98
2020-03-11 01:00:00 5.1 0 Calma 2 Sur 0 -- -- 96
2020-03-11 00:00:00 5.6 0 Calma 2 Sudeste 0 -- -- 96
2020-03-10 23:00:00 6.2 0 Calma 2 Sudeste 0 -- -- 95
2020-03-10 22:00:00 6.9 0 Calma 2 Este 0 -- -- 94
2020-03-10 21:00:00 8 0 Calma 4 Sudeste 0 -- -- 92
2020-03-10 20:00:00 9.5 2 Sudeste 6 Este 0 -- -- 88
2020-03-10 19:00:00 12.5 2 Sur 13 Noroeste 0 -- -- 79
2020-03-10 18:00:00 13.8 6 Norte 13 Norte 0 -- -- 74
2020-03-10 17:00:00 14.6 9 Noroeste 22 Nordeste 0 -- -- 70
2020-03-10 16:00:00 15.7 9 Norte 19 Nordeste 0 -- -- 68
2020-03-10 15:00:00 16.2 8 Noroeste 19 Norte 0 -- -- 66
2020-03-10 14:00:00 16.1 8 Norte 17 Norte 0 -- -- 65
2020-03-10 13:00:00 15.7 3 Sudoeste 6 Sudoeste 0 -- -- 70
2020-03-10 12:00:00 12.9 0 Calma 4 Sudeste 0 -- -- 81
2020-03-10 11:00:00 10.3 0 Calma 3 Oeste 0 -- -- 87
2020-03-10 10:00:00 7.6 0 Calma 3 Norte 0 -- -- 99
2020-03-10 09:00:00 6.7 0 Calma 2 Este 0 -- -- 98
2020-03-10 08:00:00 6.4 0 Calma 3 Nordeste 0 -- -- 98
2020-03-10 07:00:00 6.6 0 Calma 2 Nordeste 0 -- -- 98
2020-03-10 06:00:00 6.7 0 Calma 4 Este 0 -- -- 98
2020-03-10 05:00:00 7 0 Calma 3 Este 0 -- -- 98
2020-03-10 04:00:00 6.9 0 Calma 0 Calma 0 -- -- 98
2020-03-10 03:00:00 6.3 0 Calma 2 Sur 0 -- -- 97
2020-03-10 02:00:00 6 0 Calma 2 Este 0 -- -- 95
2020-03-10 01:00:00 7 0 Calma 3 Sudeste 0 -- -- 94
2020-03-10 00:00:00 8.1 0 Calma 4 Sudeste 0 -- -- 94
2020-03-09 23:00:00 9 0 Calma 4 Norte 0 -- -- 90
2020-03-09 22:00:00 10.7 0 Calma 13 Noroeste 0 -- -- 88
2020-03-09 21:00:00 11.1 0 Calma 8 Noroeste 0 -- -- 83
2020-03-09 20:00:00 11.4 4 Noroeste 15 Oeste 0 -- -- 77
2020-03-09 19:00:00 11.5 4 Norte 23 Noroeste 0 -- -- 79
2020-03-09 18:00:00 11.9 7 Oeste 22 Noroeste 0 -- -- 75
2020-03-09 17:00:00 11.7 6 Oeste 27 Noroeste 0 -- -- 74
2020-03-09 16:00:00 12.3 10 Noroeste 30 Noroeste 0.4 -- -- 70
2020-03-09 15:00:00 12.4 8 Oeste 28 Sudoeste 0 -- -- 72
2020-03-09 14:00:00 12 12 Noroeste 30 Noroeste 0.2 -- -- 79
2020-03-09 13:00:00 12.1 10 Noroeste 35 Noroeste 0 -- -- 72
2020-03-09 12:00:00 12 6 Noroeste 26 Norte 0.8 -- -- 80
2020-03-09 11:00:00 11 7 Noroeste 24 Noroeste 0 -- -- 83
2020-03-09 10:00:00 9.5 0 Calma 23 Noroeste 1 -- -- 92
2020-03-09 09:00:00 9.3 4 Noroeste 20 Noroeste 2.4 -- -- 90
2020-03-09 08:00:00 9.6 6 Noroeste 24 Noroeste 1.2 -- -- 86
2020-03-09 07:00:00 9.6 9 Noroeste 30 Norte 1.4 -- -- 87
2020-03-09 06:00:00 10.3 10 Noroeste 38 Oeste 0 -- -- 84
2020-03-09 05:00:00 9.3 3 Sudoeste 17 Noroeste 0.4 -- -- 91
2020-03-09 04:00:00 9.7 10 Oeste 30 Noroeste 1.4 -- -- 86
2020-03-09 03:00:00 9.6 6 Oeste 28 Noroeste 2.2 -- -- 90
2020-03-09 02:00:00 9.9 6 Oeste 23 Noroeste 4.8 -- -- 91
2020-03-09 01:00:00 10.3 5 Oeste 30 Oeste 1.4 -- -- 88
2020-03-09 00:00:00 11 6 Oeste 28 Oeste 0.6 -- -- 85